createdAt,value
2023-03-24T00:00:01.851Z,79.40
2023-03-24T00:01:05.328Z,78.90
2023-03-24T00:02:08.144Z,78.02
2023-03-24T00:03:10.828Z,78.49
2023-03-24T00:04:14.296Z,79.30
2023-03-24T00:05:18.754Z,81.00
2023-03-24T00:06:22.636Z,81.54
2023-03-24T00:07:26.208Z,81.00
2023-03-24T00:08:30.554Z,80.45
2023-03-24T00:09:32.389Z,79.53
2023-03-24T00:10:36.984Z,79.68
2023-03-24T00:11:38.659Z,79.49
2023-03-24T00:12:42.615Z,79.90
2023-03-24T00:13:44.396Z,79.56
2023-03-24T00:14:47.432Z,79.25
2023-03-24T00:15:49.015Z,79.60
2023-03-24T00:16:52.895Z,79.73
2023-03-24T00:17:56.140Z,79.06
2023-03-24T00:18:58.711Z,79.28
2023-03-24T00:20:00.284Z,79.40
2023-03-24T00:21:03.873Z,79.22
2023-03-24T00:22:05.531Z,79.32
2023-03-24T00:23:09.313Z,79.34
2023-03-24T00:24:12.714Z,79.29
2023-03-24T00:25:16.200Z,78.33
2023-03-24T00:26:17.815Z,78.54
2023-03-24T00:27:21.133Z,79.41
2023-03-24T00:28:22.709Z,78.84
2023-03-24T00:29:26.157Z,78.80
2023-03-24T00:30:27.737Z,79.74
2023-03-24T00:31:30.749Z,79.21
2023-03-24T00:32:32.354Z,78.71
2023-03-24T00:33:38.021Z,78.55
2023-03-24T00:34:43.313Z,78.51
2023-03-24T00:35:45.871Z,78.13
2023-03-24T00:36:48.736Z,78.60
2023-03-24T00:37:52.169Z,78.54
2023-03-24T00:38:56.253Z,78.73
2023-03-24T00:39:59.618Z,79.07
2023-03-24T00:41:01.943Z,78.65
2023-03-24T00:42:04.577Z,78.54
2023-03-24T00:43:06.124Z,78.33
2023-03-24T00:44:18.069Z,78.08
2023-03-24T00:45:23.458Z,78.34
2023-03-24T00:46:39.298Z,79.02
2023-03-24T00:47:41.446Z,79.94
2023-03-24T00:48:44.292Z,80.40
2023-03-24T00:49:45.854Z,80.40
2023-03-24T00:50:49.744Z,79.63
2023-03-24T00:51:51.776Z,79.44
2023-03-24T00:52:54.682Z,80.67
2023-03-24T00:53:58.011Z,80.58
2023-03-24T00:55:02.768Z,82.11
2023-03-24T00:56:09.096Z,82.86
2023-03-24T00:57:12.911Z,82.27
2023-03-24T00:58:18.023Z,82.07
2023-03-24T00:59:21.416Z,81.79
2023-03-24T01:00:26.194Z,81.67
2023-03-24T01:01:33.069Z,83.00
2023-03-24T01:02:35.097Z,82.92
2023-03-24T01:03:43.222Z,83.74
2023-03-24T01:04:47.342Z,83.02
2023-03-24T01:05:49.840Z,83.79
2023-03-24T01:06:52.687Z,83.98
2023-03-24T01:07:57.436Z,83.39
2023-03-24T01:09:02.787Z,82.51
2023-03-24T01:10:05.880Z,83.31
2023-03-24T01:11:07.550Z,83.26
2023-03-24T01:12:10.370Z,83.58
2023-03-24T01:13:12.692Z,82.95
2023-03-24T01:14:16.153Z,84.05
2023-03-24T01:15:20.327Z,84.97
2023-03-24T01:16:25.795Z,85.53
2023-03-24T01:17:27.601Z,84.96
2023-03-24T01:18:30.367Z,84.06
2023-03-24T01:19:33.066Z,83.82
2023-03-24T01:20:40.628Z,83.92
2023-03-24T01:21:42.483Z,84.13
2023-03-24T01:22:46.319Z,82.96
2023-03-24T01:23:48.126Z,82.99
2023-03-24T01:24:53.112Z,82.60
2023-03-24T01:25:54.826Z,83.44
2023-03-24T01:26:57.416Z,82.31
2023-03-24T01:27:58.982Z,82.59
2023-03-24T01:29:01.604Z,81.99
2023-03-24T01:30:06.187Z,82.15
2023-03-24T01:31:11.124Z,81.25
2023-03-24T01:32:13.790Z,80.87
2023-03-24T01:33:16.686Z,81.87
2023-03-24T01:34:18.314Z,81.72
2023-03-24T01:35:21.306Z,81.72
2023-03-24T01:36:23.284Z,82.74
2023-03-24T01:37:26.158Z,82.13
2023-03-24T01:38:27.736Z,81.82
2023-03-24T01:39:30.910Z,81.78
2023-03-24T01:40:35.720Z,83.51
2023-03-24T01:41:42.337Z,83.67
2023-03-24T01:42:44.249Z,83.38
2023-03-24T01:43:47.000Z,83.71
2023-03-24T01:44:50.527Z,83.71
2023-03-24T01:46:01.668Z,83.07
2023-03-24T01:47:07.809Z,82.95
2023-03-24T01:48:14.352Z,82.55
2023-03-24T01:49:18.008Z,83.68
2023-03-24T01:50:19.597Z,83.82
2023-03-24T01:51:26.390Z,84.73
2023-03-24T01:52:31.089Z,84.82
2023-03-24T01:53:35.734Z,84.07
2023-03-24T01:54:42.854Z,83.59
2023-03-24T01:55:48.575Z,83.81
2023-03-24T01:56:55.528Z,83.91
2023-03-24T01:58:01.352Z,84.89
2023-03-24T01:59:08.967Z,84.88
2023-03-24T02:00:13.935Z,84.86
2023-03-24T02:01:17.487Z,84.03
2023-03-24T02:02:22.021Z,83.30
2023-03-24T02:03:30.049Z,83.92
2023-03-24T02:04:34.718Z,84.22
2023-03-24T02:05:46.381Z,83.68
2023-03-24T02:06:48.947Z,84.87
2023-03-24T02:08:03.403Z,85.29
2023-03-24T02:09:04.968Z,85.37
2023-03-24T02:10:10.775Z,85.97
2023-03-24T02:11:14.142Z,85.68
2023-03-24T02:12:18.312Z,85.45
2023-03-24T02:13:19.997Z,85.77
2023-03-24T02:14:22.729Z,85.55
2023-03-24T02:15:28.162Z,85.14
2023-03-24T02:16:47.427Z,84.77
2023-03-24T02:18:02.111Z,86.88
2023-03-24T02:19:39.143Z,87.26
2023-03-24T02:21:07.695Z,86.86
2023-03-24T02:22:48.444Z,86.48
2023-03-24T02:24:09.291Z,87.09
2023-03-24T02:25:31.782Z,86.34
2023-03-24T02:27:00.280Z,87.73
2023-03-24T02:28:18.309Z,88.48
2023-03-24T02:30:02.863Z,88.91
2023-03-24T02:31:42.022Z,88.75
2023-03-24T02:33:08.394Z,89.73
2023-03-24T02:34:56.734Z,90.46
2023-03-24T02:36:22.946Z,90.37
2023-03-24T02:38:03.956Z,90.05
2023-03-24T02:39:32.993Z,89.14
2023-03-24T02:40:38.641Z,89.05
2023-03-24T02:41:50.247Z,89.59
2023-03-24T02:43:03.850Z,89.88
2023-03-24T02:44:11.396Z,89.34
2023-03-24T02:45:25.198Z,89.93
2023-03-24T02:46:33.177Z,89.52
2023-03-24T02:47:46.146Z,90.53
2023-03-24T02:49:02.838Z,92.10
2023-03-24T02:50:15.202Z,91.80
2023-03-24T02:51:23.087Z,92.15
2023-03-24T02:52:33.620Z,91.93
2023-03-24T02:53:46.609Z,92.32
2023-03-24T02:54:54.777Z,94.28
2023-03-24T02:56:00.878Z,94.47
2023-03-24T02:57:07.076Z,94.75
2023-03-24T02:58:14.754Z,95.18
2023-03-24T02:59:22.605Z,95.36
2023-03-24T03:00:32.447Z,95.52
2023-03-24T03:01:41.802Z,95.54
2023-03-24T03:02:49.989Z,95.97
2023-03-24T03:03:56.916Z,96.78
2023-03-24T03:05:06.009Z,97.22
2023-03-24T03:06:14.927Z,97.40
2023-03-24T03:07:25.290Z,96.33
2023-03-24T03:08:32.479Z,95.60
2023-03-24T03:09:35.241Z,96.72
2023-03-24T03:10:42.610Z,97.51
2023-03-24T03:11:49.248Z,99.18
2023-03-24T03:12:56.205Z,99.78
2023-03-24T03:14:02.365Z,100.00
2023-03-24T03:15:10.184Z,98.99
2023-03-24T03:16:18.083Z,97.00
2023-03-24T03:17:23.966Z,96.60
2023-03-24T03:18:31.262Z,95.99
2023-03-24T03:19:39.472Z,95.91
2023-03-24T03:20:50.571Z,94.85
2023-03-24T03:21:54.969Z,95.98
2023-03-24T03:23:00.851Z,94.55
2023-03-24T03:24:11.116Z,95.52
2023-03-24T03:25:16.008Z,96.79
2023-03-24T03:26:24.059Z,96.59
2023-03-24T03:27:31.315Z,96.84
2023-03-24T03:28:36.596Z,95.22
2023-03-24T03:29:41.289Z,94.72
2023-03-24T03:30:49.678Z,94.88
2023-03-24T03:31:59.648Z,94.99
2023-03-24T03:33:06.568Z,95.14
2023-03-24T03:34:14.868Z,94.88
2023-03-24T03:35:23.598Z,95.05
2023-03-24T03:36:30.450Z,94.24
2023-03-24T03:37:37.660Z,93.68
2023-03-24T03:38:47.842Z,94.32
2023-03-24T03:39:56.240Z,93.42
2023-03-24T03:41:00.251Z,93.02
2023-03-24T03:42:05.137Z,93.75
2023-03-24T03:43:07.271Z,94.65
2023-03-24T03:44:10.366Z,94.69
2023-03-24T03:45:12.409Z,94.51
2023-03-24T03:46:16.574Z,94.55
2023-03-24T03:47:19.042Z,93.51
2023-03-24T03:48:21.941Z,94.55
2023-03-24T03:49:25.637Z,94.10
2023-03-24T03:50:28.358Z,93.90
2023-03-24T03:51:30.004Z,92.84
2023-03-24T03:52:32.749Z,93.05
2023-03-24T03:53:41.628Z,92.45
2023-03-24T03:54:44.879Z,92.52
2023-03-24T03:55:47.268Z,91.92
2023-03-24T03:56:50.940Z,92.25
2023-03-24T03:57:54.713Z,92.74
2023-03-24T03:58:58.263Z,92.54
2023-03-24T04:00:10.766Z,93.54
2023-03-24T04:01:16.871Z,92.61
2023-03-24T04:02:35.559Z,91.86
2023-03-24T04:04:02.621Z,92.08
2023-03-24T04:05:16.996Z,93.20
2023-03-24T04:06:31.967Z,92.89
2023-03-24T04:07:42.197Z,92.43
2023-03-24T04:08:49.456Z,92.12
2023-03-24T04:10:07.621Z,90.95
2023-03-24T04:11:50.029Z,90.50
2023-03-24T04:13:17.106Z,89.40
2023-03-24T04:14:47.464Z,90.91
2023-03-24T04:15:55.733Z,91.72
2023-03-24T04:17:10.942Z,90.98
2023-03-24T04:18:41.116Z,92.28
2023-03-24T04:19:56.875Z,92.27
2023-03-24T04:21:13.019Z,90.89
2023-03-24T04:22:27.515Z,90.01
2023-03-24T04:23:40.964Z,89.29
2023-03-24T04:24:50.996Z,88.29
2023-03-24T04:26:01.604Z,88.03
2023-03-24T04:27:12.026Z,87.88
2023-03-24T04:28:26.491Z,87.62
2023-03-24T04:29:42.419Z,87.31
2023-03-24T04:30:50.375Z,88.04
2023-03-24T04:31:59.126Z,90.64
2023-03-24T04:33:05.516Z,91.49
2023-03-24T04:34:16.337Z,90.89
2023-03-24T04:35:26.348Z,89.85
2023-03-24T04:36:42.506Z,89.84
2023-03-24T04:37:45.883Z,91.33
2023-03-24T04:38:53.407Z,90.12
2023-03-24T04:39:58.931Z,89.81
2023-03-24T04:41:01.994Z,90.26
2023-03-24T04:42:08.013Z,91.29
2023-03-24T04:43:16.784Z,92.45
2023-03-24T04:44:21.832Z,93.02
2023-03-24T04:45:25.706Z,92.53
2023-03-24T04:46:27.326Z,92.58
2023-03-24T04:47:53.869Z,92.88
2023-03-24T04:48:55.624Z,92.02
2023-03-24T04:50:02.149Z,93.45
2023-03-24T04:51:05.969Z,92.64
2023-03-24T04:52:08.122Z,92.20
2023-03-24T04:53:11.288Z,92.11
2023-03-24T04:54:13.967Z,92.04
2023-03-24T04:55:42.259Z,91.66
2023-03-24T04:56:47.685Z,91.43
2023-03-24T04:57:49.737Z,91.49
2023-03-24T04:58:52.278Z,91.07
2023-03-24T04:59:56.071Z,93.13
2023-03-24T05:00:58.796Z,94.04
2023-03-24T05:02:01.886Z,92.96
2023-03-24T05:03:03.530Z,93.11
2023-03-24T05:04:06.189Z,92.00
2023-03-24T05:05:08.603Z,91.43
2023-03-24T05:06:11.395Z,92.25
2023-03-24T05:07:15.278Z,92.09
2023-03-24T05:08:19.495Z,92.35
2023-03-24T05:09:24.807Z,92.58
2023-03-24T05:10:26.475Z,91.84
2023-03-24T05:11:29.335Z,91.64
2023-03-24T05:12:31.018Z,91.86
2023-03-24T05:13:33.509Z,92.08
2023-03-24T05:14:35.396Z,90.87
2023-03-24T05:15:39.492Z,90.85
2023-03-24T05:16:41.208Z,90.98
2023-03-24T05:17:43.846Z,91.22
2023-03-24T05:18:45.637Z,90.79
2023-03-24T05:19:48.105Z,90.98
2023-03-24T05:20:50.031Z,90.97
2023-03-24T05:21:53.665Z,91.22
2023-03-24T05:22:55.295Z,91.48
2023-03-24T05:23:57.811Z,91.07
2023-03-24T05:24:59.353Z,91.16
2023-03-24T05:26:02.237Z,90.20
2023-03-24T05:27:03.855Z,91.02
2023-03-24T05:28:06.712Z,90.78
2023-03-24T05:29:08.262Z,90.76
2023-03-24T05:30:11.811Z,91.99
2023-03-24T05:31:14.696Z,91.25
2023-03-24T05:32:17.281Z,91.01
2023-03-24T05:33:18.905Z,91.64
2023-03-24T05:34:22.239Z,91.72
2023-03-24T05:35:24.734Z,91.33
2023-03-24T05:36:27.542Z,91.55
2023-03-24T05:37:29.068Z,91.99
2023-03-24T05:38:31.857Z,91.85
2023-03-24T05:39:33.535Z,91.22
2023-03-24T05:40:37.520Z,91.25
2023-03-24T05:41:40.042Z,91.16
2023-03-24T05:42:41.938Z,90.81
2023-03-24T05:43:44.529Z,90.83
2023-03-24T05:44:46.505Z,90.91
2023-03-24T05:45:49.281Z,90.88
2023-03-24T05:46:52.390Z,90.26
2023-03-24T05:47:54.983Z,90.57
2023-03-24T05:48:56.590Z,90.42
2023-03-24T05:49:59.310Z,90.96
2023-03-24T05:51:00.907Z,90.56
2023-03-24T05:52:03.435Z,90.23
2023-03-24T05:53:04.945Z,89.60
2023-03-24T05:54:08.532Z,88.76
2023-03-24T05:55:10.964Z,88.65
2023-03-24T05:56:13.898Z,88.68
2023-03-24T05:57:16.311Z,89.15
2023-03-24T05:58:22.099Z,88.92
2023-03-24T05:59:23.709Z,89.50
2023-03-24T06:00:36.781Z,88.99
2023-03-24T06:01:38.546Z,89.03
2023-03-24T06:02:42.792Z,88.71
2023-03-24T06:03:44.774Z,87.89
2023-03-24T06:04:49.209Z,87.78
2023-03-24T06:05:51.300Z,87.39
2023-03-24T06:06:55.861Z,86.85
2023-03-24T06:07:58.774Z,86.66
2023-03-24T06:09:02.561Z,86.90
2023-03-24T06:10:05.039Z,87.25
2023-03-24T06:11:07.934Z,87.62
2023-03-24T06:12:09.922Z,88.13
2023-03-24T06:13:12.713Z,87.43
2023-03-24T06:14:14.963Z,87.70
2023-03-24T06:15:17.930Z,87.29
2023-03-24T06:16:23.909Z,87.89
2023-03-24T06:17:28.553Z,87.19
2023-03-24T06:18:32.058Z,86.72
2023-03-24T06:19:34.772Z,85.95
2023-03-24T06:20:36.354Z,86.47
2023-03-24T06:21:38.963Z,86.38
2023-03-24T06:22:40.579Z,86.13
2023-03-24T06:23:43.107Z,86.20
2023-03-24T06:24:45.261Z,85.73
2023-03-24T06:25:50.757Z,86.17
2023-03-24T06:26:52.272Z,85.80
2023-03-24T06:27:54.749Z,85.59
2023-03-24T06:28:56.806Z,85.65
2023-03-24T06:29:59.338Z,85.84
2023-03-24T06:31:00.848Z,85.10
2023-03-24T06:32:03.555Z,85.59
2023-03-24T06:33:08.135Z,85.20
2023-03-24T06:34:12.680Z,84.59
2023-03-24T06:35:14.878Z,84.94
2023-03-24T06:36:17.534Z,85.17
2023-03-24T06:37:21.733Z,84.78
2023-03-24T06:38:24.514Z,84.11
2023-03-24T06:39:26.381Z,83.18
2023-03-24T06:40:29.074Z,82.90
2023-03-24T06:41:31.413Z,83.41
2023-03-24T06:42:34.004Z,83.39
2023-03-24T06:43:35.944Z,83.78
2023-03-24T06:44:38.662Z,83.56
2023-03-24T06:45:40.464Z,84.55
2023-03-24T06:46:45.939Z,84.49
2023-03-24T06:47:47.637Z,84.01
2023-03-24T06:48:50.205Z,83.88
2023-03-24T06:49:53.475Z,83.88
2023-03-24T06:50:57.126Z,83.33
2023-03-24T06:51:58.751Z,84.21
2023-03-24T06:53:01.242Z,83.84
2023-03-24T06:54:03.321Z,83.51
2023-03-24T06:55:08.278Z,83.11
2023-03-24T06:56:10.039Z,82.92
2023-03-24T06:57:12.881Z,82.22
2023-03-24T06:58:15.018Z,81.46
2023-03-24T06:59:17.881Z,81.38
2023-03-24T07:00:19.996Z,81.49
2023-03-24T07:01:22.539Z,81.82
2023-03-24T07:02:24.149Z,81.82
2023-03-24T07:03:26.740Z,80.27
2023-03-24T07:04:36.467Z,81.94
2023-03-24T07:05:41.407Z,81.54
2023-03-24T07:07:00.803Z,81.33
2023-03-24T07:08:33.819Z,82.03
2023-03-24T07:09:29.357Z,82.85
2023-03-24T07:10:31.246Z,82.69
2023-03-24T07:11:33.815Z,82.70
2023-03-24T07:12:36.496Z,82.79
2023-03-24T07:13:38.516Z,82.83
2023-03-24T07:14:41.234Z,82.59
2023-03-24T07:15:42.757Z,83.22
2023-03-24T07:16:45.367Z,83.08
2023-03-24T07:17:51.061Z,82.85
2023-03-24T07:18:55.955Z,83.18
2023-03-24T07:19:57.452Z,84.03
2023-03-24T07:21:01.528Z,83.80
2023-03-24T07:22:03.101Z,83.34
2023-03-24T07:23:05.835Z,83.87
2023-03-24T07:24:07.973Z,84.04
2023-03-24T07:25:21.213Z,84.33
2023-03-24T07:26:23.727Z,83.17
2023-03-24T07:27:26.278Z,82.16
2023-03-24T07:28:28.859Z,83.30
2023-03-24T07:29:31.172Z,83.12
2023-03-24T07:30:40.687Z,82.50
2023-03-24T07:31:44.997Z,83.26
2023-03-24T07:32:46.547Z,83.77
2023-03-24T07:33:49.265Z,84.01
2023-03-24T07:34:50.970Z,83.06
2023-03-24T07:35:56.080Z,82.87
2023-03-24T07:37:00.708Z,82.47
2023-03-24T07:38:08.210Z,82.12
2023-03-24T07:39:10.832Z,82.47
2023-03-24T07:40:13.839Z,83.64
2023-03-24T07:41:16.322Z,83.90
2023-03-24T07:42:17.985Z,83.67
2023-03-24T07:43:21.891Z,83.26
2023-03-24T07:44:24.370Z,83.08
2023-03-24T07:45:26.718Z,82.01
2023-03-24T07:46:29.294Z,82.41
2023-03-24T07:47:31.651Z,82.31
2023-03-24T07:48:34.644Z,82.47
2023-03-24T07:49:37.151Z,82.73
2023-03-24T07:50:38.845Z,82.85
2023-03-24T07:51:43.032Z,83.37
2023-03-24T07:52:49.687Z,84.03
2023-03-24T07:53:52.519Z,84.37
2023-03-24T07:54:55.074Z,84.24
2023-03-24T07:55:56.602Z,83.61
2023-03-24T07:56:59.149Z,83.16
2023-03-24T07:58:00.734Z,82.95
2023-03-24T07:59:03.408Z,83.61
2023-03-24T08:00:14.737Z,83.95
2023-03-24T08:01:17.480Z,84.47
2023-03-24T08:02:20.575Z,83.28
2023-03-24T08:03:25.586Z,83.39
2023-03-24T08:04:28.886Z,83.36
2023-03-24T08:05:30.876Z,83.46
2023-03-24T08:06:33.392Z,83.36
2023-03-24T08:07:35.160Z,84.26
2023-03-24T08:08:39.531Z,83.64
2023-03-24T08:09:41.284Z,83.09
2023-03-24T08:10:45.910Z,83.37
2023-03-24T08:11:48.548Z,83.00
2023-03-24T08:12:51.274Z,83.49
2023-03-24T08:13:54.179Z,82.89
2023-03-24T08:14:55.783Z,82.63
2023-03-24T08:15:58.337Z,81.79
2023-03-24T08:16:59.899Z,82.07
2023-03-24T08:18:04.828Z,82.26
2023-03-24T08:19:06.505Z,81.56
2023-03-24T08:20:15.201Z,81.91
2023-03-24T08:21:18.335Z,81.85
2023-03-24T08:22:20.033Z,81.72
2023-03-24T08:23:22.530Z,81.60
2023-03-24T08:24:25.514Z,81.09
2023-03-24T08:25:28.471Z,81.53
2023-03-24T08:26:31.066Z,81.09
2023-03-24T08:27:33.969Z,80.33
2023-03-24T08:28:36.999Z,80.44
2023-03-24T08:29:39.374Z,80.02
2023-03-24T08:30:43.532Z,79.59
2023-03-24T08:31:45.440Z,78.94
2023-03-24T08:32:51.545Z,79.23
2023-03-24T08:33:55.030Z,79.43
2023-03-24T08:34:57.857Z,79.90
2023-03-24T08:36:01.088Z,79.22
2023-03-24T08:37:02.866Z,79.61
2023-03-24T08:38:07.218Z,79.54
2023-03-24T08:39:09.760Z,79.34
2023-03-24T08:40:18.446Z,78.89
2023-03-24T08:41:21.908Z,77.83
2023-03-24T08:42:23.784Z,77.43
2023-03-24T08:43:27.492Z,77.85
2023-03-24T08:44:32.792Z,77.78
2023-03-24T08:45:36.680Z,76.81
2023-03-24T08:46:48.989Z,78.41
2023-03-24T08:47:52.290Z,79.13
2023-03-24T08:48:54.866Z,79.23
2023-03-24T08:49:59.183Z,78.60
2023-03-24T08:51:01.748Z,77.77
2023-03-24T08:52:03.710Z,78.05
2023-03-24T08:53:06.641Z,77.67
2023-03-24T08:54:09.454Z,77.21
2023-03-24T08:55:13.419Z,76.81
2023-03-24T08:56:15.892Z,76.66
2023-03-24T08:57:17.811Z,77.21
2023-03-24T08:58:21.852Z,77.30
2023-03-24T08:59:23.693Z,77.45
2023-03-24T09:00:26.245Z,76.94
2023-03-24T09:01:28.825Z,77.11
2023-03-24T09:02:30.403Z,76.06
2023-03-24T09:03:32.900Z,77.45
2023-03-24T09:04:34.507Z,77.45
2023-03-24T09:05:54.552Z,77.70
2023-03-24T09:07:01.688Z,77.58
2023-03-24T09:08:05.700Z,78.08
2023-03-24T09:09:08.518Z,76.93
2023-03-24T09:10:13.756Z,76.39
2023-03-24T09:11:17.146Z,76.14
2023-03-24T09:12:19.642Z,76.83
2023-03-24T09:13:21.413Z,76.99
2023-03-24T09:14:24.228Z,76.19
2023-03-24T09:15:26.841Z,75.93
2023-03-24T09:16:29.534Z,77.53
2023-03-24T09:17:31.113Z,77.66
2023-03-24T09:18:34.495Z,76.41
2023-03-24T09:19:36.139Z,75.31
2023-03-24T09:20:38.690Z,75.17
2023-03-24T09:21:41.792Z,75.10
2023-03-24T09:22:45.961Z,74.46
2023-03-24T09:23:47.605Z,74.05
2023-03-24T09:24:50.585Z,74.76
2023-03-24T09:25:54.626Z,75.09
2023-03-24T09:26:56.185Z,74.16
2023-03-24T09:27:58.642Z,74.94
2023-03-24T09:29:01.290Z,75.32
2023-03-24T09:30:03.544Z,75.95
2023-03-24T09:31:07.516Z,75.85
2023-03-24T09:32:10.489Z,75.14
2023-03-24T09:33:13.585Z,75.05
2023-03-24T09:34:15.675Z,73.01
2023-03-24T09:35:18.721Z,74.15
2023-03-24T09:36:21.706Z,74.64
2023-03-24T09:37:23.288Z,74.24
2023-03-24T09:38:26.512Z,73.46
2023-03-24T09:39:28.371Z,73.15
2023-03-24T09:40:33.956Z,72.80
2023-03-24T09:41:37.955Z,72.87
2023-03-24T09:42:42.546Z,73.91
2023-03-24T09:43:50.043Z,73.50
2023-03-24T09:44:56.612Z,73.59
2023-03-24T09:46:03.121Z,73.77
2023-03-24T09:47:14.535Z,73.80
2023-03-24T09:48:21.428Z,73.94
2023-03-24T09:49:28.036Z,73.02
2023-03-24T09:50:36.121Z,73.67
2023-03-24T09:51:43.635Z,73.72
2023-03-24T09:52:49.114Z,74.30
2023-03-24T09:53:59.195Z,73.42
2023-03-24T09:55:02.578Z,72.50
2023-03-24T09:56:12.454Z,72.62
2023-03-24T09:57:22.925Z,72.92
2023-03-24T09:58:29.599Z,72.54
2023-03-24T09:59:36.312Z,72.56
2023-03-24T10:00:38.122Z,72.38
2023-03-24T10:01:40.742Z,71.89
2023-03-24T10:02:42.464Z,71.43
2023-03-24T10:03:46.621Z,72.12
2023-03-24T10:04:49.560Z,72.23
2023-03-24T10:05:55.399Z,72.00
2023-03-24T10:07:01.769Z,71.37
2023-03-24T10:08:14.618Z,70.90
2023-03-24T10:09:24.036Z,70.38
2023-03-24T10:10:34.500Z,70.77
2023-03-24T10:11:43.212Z,71.05
2023-03-24T10:12:49.166Z,71.63
2023-03-24T10:14:11.767Z,70.44
2023-03-24T10:16:37.517Z,69.19
2023-03-24T10:17:48.662Z,68.10
2023-03-24T10:19:00.586Z,67.99
2023-03-24T10:20:12.444Z,67.62
2023-03-24T10:21:19.441Z,67.73
2023-03-24T10:22:26.752Z,67.96
2023-03-24T10:23:36.609Z,66.45
2023-03-24T10:24:48.174Z,66.45
2023-03-24T10:25:54.226Z,66.89
2023-03-24T10:27:04.813Z,66.08
2023-03-24T10:28:19.723Z,66.98
2023-03-24T10:29:25.019Z,66.87
2023-03-24T10:30:29.967Z,67.47
2023-03-24T10:31:34.133Z,67.62
2023-03-24T10:32:38.231Z,67.30
2023-03-24T10:33:42.857Z,67.75
2023-03-24T10:34:49.417Z,67.81
2023-03-24T10:35:57.344Z,66.55
2023-03-24T10:37:02.235Z,65.30
2023-03-24T10:38:12.332Z,63.85
2023-03-24T10:39:22.510Z,61.42
2023-03-24T10:40:33.257Z,62.13
2023-03-24T10:41:37.540Z,62.94
2023-03-24T10:42:39.409Z,63.30
2023-03-24T10:43:44.546Z,64.41
2023-03-24T10:44:49.152Z,63.59
2023-03-24T10:45:54.274Z,63.65
2023-03-24T10:46:59.124Z,63.03
2023-03-24T10:48:03.510Z,62.88
2023-03-24T10:49:10.209Z,63.99
2023-03-24T10:50:14.507Z,64.73
2023-03-24T10:51:19.476Z,65.85
2023-03-24T10:52:24.500Z,65.43
2023-03-24T10:53:27.419Z,66.31
2023-03-24T10:54:31.464Z,66.82
2023-03-24T10:55:39.088Z,66.64
2023-03-24T10:56:43.416Z,66.79
2023-03-24T10:57:55.946Z,67.77
2023-03-24T10:58:59.940Z,67.75
2023-03-24T11:00:14.326Z,67.77
2023-03-24T11:01:27.253Z,68.13
2023-03-24T11:02:32.556Z,67.58
2023-03-24T11:03:36.966Z,67.28
2023-03-24T11:04:41.777Z,66.61
2023-03-24T11:05:44.651Z,67.15
2023-03-24T11:07:04.098Z,66.35
2023-03-24T11:08:27.028Z,66.08
2023-03-24T11:09:28.752Z,67.44
2023-03-24T11:10:31.224Z,67.60
2023-03-24T11:11:32.809Z,66.43
2023-03-24T11:12:37.982Z,66.21
2023-03-24T11:13:39.683Z,67.11
2023-03-24T11:14:46.552Z,67.40
2023-03-24T11:15:58.799Z,67.30
2023-03-24T11:17:11.974Z,67.03
2023-03-24T11:18:17.218Z,67.68
2023-03-24T11:19:22.483Z,68.34
2023-03-24T11:20:30.185Z,68.44
2023-03-24T11:21:36.033Z,67.75
2023-03-24T11:22:40.153Z,67.77
2023-03-24T11:23:44.618Z,68.46
2023-03-24T11:24:52.772Z,67.85
2023-03-24T11:26:04.079Z,67.73
2023-03-24T11:27:06.913Z,67.57
2023-03-24T11:28:15.288Z,68.01
2023-03-24T11:29:21.814Z,68.59
2023-03-24T11:30:27.970Z,69.03
2023-03-24T11:31:35.093Z,67.61
2023-03-24T11:32:36.838Z,67.98
2023-03-24T11:33:46.592Z,68.73
2023-03-24T11:34:52.679Z,69.24
2023-03-24T11:36:05.214Z,69.62
2023-03-24T11:37:13.039Z,70.93
2023-03-24T11:38:17.370Z,71.27
2023-03-24T11:39:22.746Z,71.78
2023-03-24T11:40:27.231Z,72.60
2023-03-24T11:41:28.891Z,73.82
2023-03-24T11:42:31.384Z,74.33
2023-03-24T11:43:33.019Z,74.61
2023-03-24T11:44:47.581Z,75.13
2023-03-24T11:46:00.310Z,75.52
2023-03-24T11:47:09.779Z,75.67
2023-03-24T11:49:53.293Z,75.93
2023-03-24T11:50:57.601Z,76.66
2023-03-24T11:52:00.899Z,77.33
2023-03-24T11:53:09.094Z,77.80
2023-03-24T11:54:14.552Z,78.49
2023-03-24T11:55:21.966Z,77.07
2023-03-24T11:56:27.817Z,78.33
2023-03-24T11:57:45.962Z,79.21
2023-03-24T11:58:54.328Z,78.85
2023-03-24T12:00:04.978Z,79.32
2023-03-24T12:01:17.554Z,80.40
2023-03-24T12:02:25.833Z,81.35
2023-03-24T12:03:53.994Z,81.12
2023-03-24T12:05:10.432Z,80.03
2023-03-24T12:06:24.445Z,81.07
2023-03-24T12:08:07.041Z,79.92
2023-03-24T12:09:21.221Z,80.13
2023-03-24T12:10:34.912Z,80.28
2023-03-24T12:11:52.802Z,81.42
2023-03-24T12:13:05.341Z,79.56
2023-03-24T12:14:09.172Z,80.43
2023-03-24T12:15:28.765Z,80.28
2023-03-24T12:16:44.733Z,80.29
2023-03-24T12:17:55.895Z,80.52
2023-03-24T12:19:18.062Z,80.98
2023-03-24T12:20:25.773Z,81.50
2023-03-24T12:21:44.890Z,81.48
2023-03-24T12:22:58.373Z,81.96
2023-03-24T12:24:09.678Z,81.09
2023-03-24T12:25:29.737Z,81.68
2023-03-24T12:26:33.594Z,80.72
2023-03-24T12:27:47.369Z,81.42
2023-03-24T12:29:10.810Z,81.04
2023-03-24T12:30:22.786Z,81.78
2023-03-24T12:31:56.159Z,81.96
2023-03-24T12:33:14.413Z,83.15
2023-03-24T12:34:35.568Z,83.18
2023-03-24T12:35:56.967Z,83.85
2023-03-24T12:37:07.381Z,84.11
2023-03-24T12:38:22.072Z,85.11
2023-03-24T12:39:28.868Z,86.05
2023-03-24T12:40:53.675Z,86.39
2023-03-24T12:42:08.490Z,85.73
2023-03-24T12:43:22.860Z,87.18
2023-03-24T12:44:38.137Z,88.75
2023-03-24T12:45:49.493Z,90.55
2023-03-24T12:47:03.618Z,88.78
2023-03-24T12:48:23.694Z,89.11
2023-03-24T12:49:43.281Z,89.94
2023-03-24T12:50:57.681Z,89.52
2023-03-24T12:52:15.057Z,89.96
2023-03-24T12:53:41.771Z,90.09
2023-03-24T12:54:52.231Z,90.38
2023-03-24T12:56:00.447Z,92.07
2023-03-24T12:57:07.689Z,90.99
2023-03-24T12:58:15.875Z,91.84
2023-03-24T12:59:24.127Z,91.61
2023-03-24T13:00:33.827Z,90.98
2023-03-24T13:01:40.449Z,93.59
2023-03-24T13:02:48.722Z,93.14
2023-03-24T13:03:59.496Z,92.55
2023-03-24T13:05:07.988Z,91.82
2023-03-24T13:06:22.737Z,92.12
2023-03-24T13:07:28.550Z,91.00
2023-03-24T13:08:41.786Z,91.00
2023-03-24T13:09:49.887Z,90.57
2023-03-24T13:10:55.265Z,89.37
2023-03-24T13:12:00.823Z,93.49
2023-03-24T13:13:09.900Z,93.49
2023-03-24T13:14:16.833Z,92.56
2023-03-24T13:15:24.130Z,91.82
2023-03-24T13:16:31.016Z,91.16
2023-03-24T13:17:40.017Z,89.91
2023-03-24T13:18:48.293Z,91.17
2023-03-24T13:19:52.892Z,89.74
2023-03-24T13:20:59.205Z,90.87
2023-03-24T13:22:05.702Z,90.58
2023-03-24T13:23:25.890Z,91.42
2023-03-24T13:24:28.494Z,93.63
2023-03-24T13:25:36.897Z,91.33
2023-03-24T13:26:41.455Z,91.20
2023-03-24T13:27:47.768Z,93.11
2023-03-24T13:29:01.966Z,91.97
2023-03-24T13:30:12.234Z,91.89
2023-03-24T13:31:17.228Z,91.34
2023-03-24T13:32:29.226Z,87.48
2023-03-24T13:33:36.613Z,88.87
2023-03-24T13:34:45.895Z,88.06
2023-03-24T13:36:08.409Z,88.24
2023-03-24T13:37:14.418Z,88.01
2023-03-24T13:38:22.274Z,89.10
2023-03-24T13:39:27.865Z,87.78
2023-03-24T13:40:32.731Z,87.45
2023-03-24T13:41:39.823Z,86.30
2023-03-24T13:42:46.917Z,85.84
2023-03-24T13:43:51.728Z,85.63
2023-03-24T13:44:53.476Z,84.59
2023-03-24T13:46:01.149Z,82.55
2023-03-24T13:47:08.812Z,78.38
2023-03-24T13:48:32.973Z,75.77
2023-03-24T13:49:35.080Z,76.61
2023-03-24T13:50:42.410Z,74.09
2023-03-24T13:51:46.951Z,71.64
2023-03-24T13:52:49.752Z,70.03
2023-03-24T13:53:55.249Z,69.33
2023-03-24T13:55:00.462Z,69.61
2023-03-24T13:56:06.157Z,72.21
2023-03-24T13:57:17.160Z,72.63
2023-03-24T13:58:21.966Z,74.18
2023-03-24T13:59:29.017Z,75.05
2023-03-24T14:00:31.953Z,75.03
2023-03-24T14:01:36.985Z,73.80
2023-03-24T14:02:50.119Z,73.71
2023-03-24T14:04:23.276Z,74.60
2023-03-24T14:05:56.182Z,73.56
2023-03-24T14:07:00.460Z,76.57
2023-03-24T14:08:16.193Z,75.99
2023-03-24T14:09:21.512Z,76.12
2023-03-24T14:10:57.952Z,75.50
2023-03-24T14:12:20.796Z,75.19
2023-03-24T14:13:39.841Z,74.21
2023-03-24T14:15:17.496Z,73.02
2023-03-24T14:16:42.599Z,72.79
2023-03-24T14:17:47.262Z,73.90
2023-03-24T14:18:49.205Z,74.26
2023-03-24T14:20:13.403Z,74.25
2023-03-24T14:21:29.752Z,75.92
2023-03-24T14:23:05.261Z,76.02
2023-03-24T14:24:17.328Z,77.04